createdAt,value
2023-04-10T00:00:39.534Z,93453.06
2023-04-10T00:03:07.445Z,93451.28
2023-04-10T00:05:35.027Z,93446.09
2023-04-10T00:08:03.523Z,93447.28
2023-04-10T00:10:32.594Z,93443.72
2023-04-10T00:13:01.149Z,93440.72
2023-04-10T00:15:29.031Z,93444.94
2023-04-10T00:17:56.634Z,93440.94
2023-04-10T00:20:26.492Z,93437.13
2023-04-10T00:22:54.094Z,93427.34
2023-04-10T00:25:23.276Z,93423.16
2023-04-10T00:27:50.813Z,93417.59
2023-04-10T00:30:18.202Z,93423.97
2023-04-10T00:32:46.216Z,93415.97
2023-04-10T00:35:13.912Z,93408.37
2023-04-10T00:37:41.180Z,93415.13
2023-04-10T00:40:09.181Z,93418.56
2023-04-10T00:42:36.714Z,93414.13
2023-04-10T00:45:04.375Z,93414.75
2023-04-10T00:47:32.384Z,93412.59
2023-04-10T00:50:00.499Z,93408.97
2023-04-10T00:52:27.917Z,93415.13
2023-04-10T00:54:55.900Z,93406.38
2023-04-10T00:57:23.258Z,93407.94
2023-04-10T00:59:52.301Z,93404.38
2023-04-10T01:02:21.110Z,93404.00
2023-04-10T01:04:48.789Z,93396.78
2023-04-10T01:07:25.001Z,93389.78
2023-04-10T01:10:05.166Z,93381.66
2023-04-10T01:12:47.887Z,93376.47
2023-04-10T01:15:21.280Z,93383.81
2023-04-10T01:18:03.647Z,93382.22
2023-04-10T01:20:35.119Z,93389.00
2023-04-10T01:23:19.671Z,93390.78
2023-04-10T01:26:07.547Z,93388.03
2023-04-10T01:29:00.720Z,93384.81
2023-04-10T01:31:47.340Z,93388.81
2023-04-10T01:34:22.338Z,93382.16
2023-04-10T01:36:55.549Z,93378.78
2023-04-10T01:39:24.522Z,93375.19
2023-04-10T01:41:54.562Z,93383.81
2023-04-10T01:44:27.441Z,93384.78
2023-04-10T01:46:57.807Z,93382.34
2023-04-10T01:49:28.684Z,93385.75
2023-04-10T01:52:02.022Z,93383.56
2023-04-10T01:54:32.758Z,93380.78
2023-04-10T01:57:02.450Z,93378.19
2023-04-10T01:59:31.588Z,93374.38
2023-04-10T02:02:01.133Z,93378.59
2023-04-10T02:04:29.264Z,93380.75
2023-04-10T02:07:04.932Z,93376.69
2023-04-10T02:10:01.226Z,93381.94
2023-04-10T02:12:33.298Z,93375.19
2023-04-10T02:15:03.070Z,93372.59
2023-04-10T02:17:31.632Z,93376.97
2023-04-10T02:20:01.086Z,93375.59
2023-04-10T02:22:28.734Z,93372.63
2023-04-10T02:24:57.656Z,93374.84
2023-04-10T02:27:30.481Z,93369.22
2023-04-10T02:29:59.780Z,93362.81
2023-04-10T02:32:27.695Z,93359.84
2023-04-10T02:34:55.459Z,93361.81
2023-04-10T02:37:23.640Z,93360.41
2023-04-10T02:39:51.828Z,93357.97
2023-04-10T02:42:20.445Z,93360.41
2023-04-10T02:44:48.808Z,93350.88
2023-04-10T02:47:17.337Z,93356.06
2023-04-10T02:49:45.051Z,93359.88
2023-04-10T02:52:13.187Z,93350.44
2023-04-10T02:54:41.122Z,93345.22
2023-04-10T02:57:08.609Z,93344.44
2023-04-10T02:59:36.249Z,93344.66
2023-04-10T03:02:05.859Z,93344.69
2023-04-10T03:04:34.202Z,93334.06
2023-04-10T03:07:02.003Z,93342.22
2023-04-10T03:09:29.687Z,93344.66
2023-04-10T03:11:57.046Z,93343.66
2023-04-10T03:14:24.666Z,93340.44
2023-04-10T03:16:52.381Z,93347.03
2023-04-10T03:19:19.693Z,93344.44
2023-04-10T03:21:47.449Z,93349.19
2023-04-10T03:24:15.086Z,93353.56
2023-04-10T03:26:43.868Z,93350.97
2023-04-10T03:29:11.242Z,93347.63
2023-04-10T03:31:40.004Z,93343.66
2023-04-10T03:34:07.454Z,93345.44
2023-04-10T03:36:34.857Z,93344.44
2023-04-10T03:39:02.462Z,93349.25
2023-04-10T03:41:31.234Z,93345.69
2023-04-10T03:43:58.546Z,93345.28
2023-04-10T03:46:26.352Z,93347.47
2023-04-10T03:49:16.256Z,93347.47
2023-04-10T03:51:47.598Z,93343.09
2023-04-10T03:54:14.991Z,93358.69
2023-04-10T03:56:42.968Z,93345.50
2023-04-10T03:59:11.319Z,93352.13
2023-04-10T04:01:39.681Z,93350.09
2023-04-10T04:04:07.847Z,93354.50
2023-04-10T04:06:41.533Z,93358.31
2023-04-10T04:09:09.403Z,93357.09
2023-04-10T04:11:38.714Z,93372.09
2023-04-10T04:14:06.660Z,93366.09
2023-04-10T04:16:36.305Z,93366.91
2023-04-10T04:19:06.058Z,93365.09
2023-04-10T04:21:34.024Z,93368.69
2023-04-10T04:24:01.888Z,93365.28
2023-04-10T04:26:30.848Z,93363.31
2023-04-10T04:29:00.159Z,93374.88
2023-04-10T04:31:32.840Z,93364.88
2023-04-10T04:34:01.827Z,93377.69
2023-04-10T04:36:29.844Z,93378.06
2023-04-10T04:38:57.498Z,93371.47
2023-04-10T04:41:25.521Z,93379.44
2023-04-10T04:43:56.039Z,93382.06
2023-04-10T04:46:24.148Z,93378.44
2023-04-10T04:48:51.829Z,93379.06
2023-04-10T04:51:19.637Z,93377.03
2023-04-10T04:53:47.231Z,93382.25
2023-04-10T04:56:14.795Z,93381.22
2023-04-10T04:58:43.026Z,93378.41
2023-04-10T05:01:10.623Z,93386.41
2023-04-10T05:03:42.801Z,93380.38
2023-04-10T05:06:14.537Z,93376.41
2023-04-10T05:08:47.226Z,93378.53
2023-04-10T05:11:18.076Z,93377.53
2023-04-10T05:13:52.530Z,93377.47
2023-04-10T05:16:23.744Z,93375.56
2023-04-10T05:18:51.936Z,93378.37
2023-04-10T05:21:19.977Z,93384.19
2023-04-10T05:23:48.032Z,93379.25
2023-04-10T05:26:15.678Z,93379.00
2023-04-10T05:28:44.413Z,93382.25
2023-04-10T05:31:14.344Z,93383.84
2023-04-10T05:36:18.958Z,93382.00
2023-04-10T05:38:46.748Z,93376.81
2023-04-10T05:41:14.330Z,93391.19
2023-04-10T05:43:42.140Z,93386.81
2023-04-10T05:46:09.666Z,93383.16
2023-04-10T05:48:37.882Z,93391.09
2023-04-10T05:51:06.209Z,93392.09
2023-04-10T05:53:34.607Z,93390.88
2023-04-10T05:56:09.242Z,93394.69
2023-04-10T05:58:37.735Z,93390.88
2023-04-10T06:01:07.815Z,93398.59
2023-04-10T06:03:38.682Z,93396.69
2023-04-10T06:06:08.062Z,93390.78
2023-04-10T06:08:35.870Z,93395.78
2023-04-10T06:11:14.209Z,93396.16
2023-04-10T06:13:50.456Z,93393.41
2023-04-10T06:16:18.032Z,93389.81
2023-04-10T06:18:46.754Z,93396.47
2023-04-10T06:21:14.807Z,93396.97
2023-04-10T06:23:42.408Z,93394.44
2023-04-10T06:26:10.801Z,93391.00
2023-04-10T06:28:38.750Z,93394.97
2023-04-10T06:31:07.555Z,93385.69
2023-04-10T06:33:37.247Z,93392.66
2023-04-10T06:36:07.057Z,93393.41
2023-04-10T06:38:38.113Z,93388.59
2023-04-10T06:41:07.351Z,93395.66
2023-04-10T06:43:40.085Z,93393.22
2023-04-10T06:46:08.010Z,93400.84
2023-04-10T06:48:36.498Z,93393.91
2023-04-10T06:51:07.944Z,93402.00
2023-04-10T06:53:35.988Z,93390.66
2023-04-10T06:56:03.996Z,93402.66
2023-04-10T06:58:33.767Z,93402.22
2023-04-10T07:01:04.754Z,93399.94
2023-04-10T07:03:32.853Z,93398.22
2023-04-10T07:06:03.469Z,93404.69
2023-04-10T07:08:31.093Z,93401.09
2023-04-10T07:10:59.010Z,93404.62
2023-04-10T07:13:27.660Z,93412.53
2023-04-10T07:15:59.315Z,93399.84
2023-04-10T07:18:28.377Z,93404.91
2023-04-10T07:20:55.863Z,93404.00
2023-04-10T07:23:24.018Z,93397.53
2023-04-10T07:25:53.029Z,93398.97
2023-04-10T07:28:21.077Z,93394.03
2023-04-10T07:30:48.580Z,93400.66
2023-04-10T07:33:17.109Z,93395.44
2023-04-10T07:35:44.915Z,93394.28
2023-04-10T07:38:13.687Z,93404.28
2023-04-10T07:40:44.116Z,93401.91
2023-04-10T07:43:13.822Z,93405.28
2023-04-10T07:45:42.189Z,93398.19
2023-04-10T07:48:10.247Z,93402.75
2023-04-10T07:50:37.739Z,93393.63
2023-04-10T07:53:08.298Z,93407.37
2023-04-10T07:55:49.022Z,93398.75
2023-04-10T07:58:16.870Z,93399.94
2023-04-10T08:00:45.374Z,93403.09
2023-04-10T08:03:16.344Z,93401.16
2023-04-10T08:05:43.981Z,93401.72
2023-04-10T08:08:12.750Z,93396.47
2023-04-10T08:10:41.498Z,93405.69
2023-04-10T08:13:09.340Z,93399.13
2023-04-10T08:15:36.748Z,93398.97
2023-04-10T08:18:04.520Z,93402.38
2023-04-10T08:20:37.113Z,93398.09
2023-04-10T08:23:19.180Z,93405.56
2023-04-10T08:25:47.541Z,93398.47
2023-04-10T08:28:15.564Z,93407.16
2023-04-10T08:30:42.923Z,93405.28
2023-04-10T08:33:10.651Z,93397.09
2023-04-10T08:35:39.287Z,93403.97
2023-04-10T08:38:14.170Z,93399.06
2023-04-10T08:40:44.849Z,93403.59
2023-04-10T08:43:12.831Z,93405.59
2023-04-10T08:45:44.351Z,93402.00
2023-04-10T08:48:14.780Z,93405.63
2023-04-10T08:50:45.893Z,93405.09
2023-04-10T08:53:16.235Z,93400.31
2023-04-10T08:55:45.970Z,93402.72
2023-04-10T08:58:14.151Z,93403.38
2023-04-10T09:00:41.571Z,93404.91
2023-04-10T09:03:12.070Z,93394.06
2023-04-10T09:05:40.027Z,93399.63
2023-04-10T09:08:09.169Z,93396.44
2023-04-10T09:10:36.719Z,93400.63
2023-04-10T09:13:04.912Z,93390.97
2023-04-10T09:15:56.681Z,93377.72
2023-04-10T09:18:42.377Z,93381.25
2023-04-10T09:21:16.580Z,93384.56
2023-04-10T09:23:45.806Z,93377.78
2023-04-10T09:26:42.631Z,93371.50
2023-04-10T09:29:12.538Z,93373.28
2023-04-10T09:31:40.495Z,93370.44
2023-04-10T09:34:20.929Z,93362.59
2023-04-10T09:36:57.489Z,93358.53
2023-04-10T09:39:35.867Z,93357.22
2023-04-10T09:42:04.738Z,93356.59
2023-04-10T09:44:35.135Z,93357.03
2023-04-10T09:47:15.119Z,93357.41
2023-04-10T09:49:48.550Z,93360.69
2023-04-10T09:52:23.165Z,93353.59
2023-04-10T09:54:51.634Z,93351.56
2023-04-10T09:57:20.458Z,93343.03
2023-04-10T09:59:52.679Z,93335.41
2023-04-10T10:02:23.503Z,93341.22
2023-04-10T10:04:52.959Z,93334.00
2023-04-10T10:07:24.415Z,93339.75
2023-04-10T10:09:54.054Z,93335.94
2023-04-10T10:12:34.528Z,93333.06
2023-04-10T10:15:25.976Z,93332.72
2023-04-10T10:18:22.865Z,93318.44
2023-04-10T10:20:51.307Z,93323.28
2023-04-10T10:23:20.208Z,93319.66
2023-04-10T10:25:49.529Z,93312.03
2023-04-10T10:28:19.270Z,93320.19
2023-04-10T10:30:49.172Z,93318.94
2023-04-10T10:33:18.176Z,93306.94
2023-04-10T10:35:46.706Z,93309.84
2023-04-10T10:38:14.647Z,93298.78
2023-04-10T10:40:55.027Z,93307.09
2023-04-10T10:43:42.977Z,93308.13
2023-04-10T10:46:22.510Z,93298.94
2023-04-10T10:49:00.724Z,93302.53
2023-04-10T10:51:45.727Z,93282.12
2023-04-10T10:54:40.364Z,93290.69
2023-04-10T10:57:48.459Z,93287.03
2023-04-10T11:00:23.344Z,93288.00
2023-04-10T11:03:10.908Z,93292.28
2023-04-10T11:05:59.101Z,93289.03
2023-04-10T11:08:44.582Z,93284.16
2023-04-10T11:11:17.533Z,93282.84
2023-04-10T11:13:57.150Z,93274.44
2023-04-10T11:16:44.048Z,93265.94
2023-04-10T11:19:16.277Z,93263.81
2023-04-10T11:22:05.643Z,93256.28
2023-04-10T11:25:00.726Z,93256.25
2023-04-10T11:27:46.516Z,93254.94
2023-04-10T11:30:32.347Z,93252.78
2023-04-10T11:33:01.038Z,93249.38
2023-04-10T11:35:29.211Z,93238.72
2023-04-10T11:38:09.636Z,93253.41
2023-04-10T11:40:53.669Z,93253.94
2023-04-10T11:43:21.263Z,93244.62
2023-04-10T11:45:49.274Z,93252.41
2023-04-10T11:48:17.614Z,93243.06
2023-04-10T11:50:45.113Z,93243.53
2023-04-10T11:53:20.309Z,93249.88
2023-04-10T11:55:47.871Z,93264.28
2023-04-10T11:58:26.893Z,93250.41
2023-04-10T12:00:58.877Z,93244.19
2023-04-10T12:03:37.356Z,93248.25
2023-04-10T12:06:08.436Z,93247.72
2023-04-10T12:08:45.234Z,93236.34
2023-04-10T12:11:13.323Z,93236.88
2023-04-10T12:13:41.008Z,93241.09
2023-04-10T12:16:09.978Z,93228.25
2023-04-10T12:18:38.052Z,93227.78
2023-04-10T12:21:08.429Z,93224.78
2023-04-10T12:23:38.993Z,93243.06
2023-04-10T12:26:09.681Z,93238.44
2023-04-10T12:28:38.416Z,93237.16
2023-04-10T12:31:06.469Z,93226.44
2023-04-10T12:33:34.295Z,93228.50
2023-04-10T12:36:01.910Z,93221.81
2023-04-10T12:38:43.568Z,93239.84
2023-04-10T12:41:12.485Z,93222.81
2023-04-10T12:43:42.893Z,93224.94
2023-04-10T12:46:24.058Z,93225.78
2023-04-10T12:48:51.517Z,93234.47
2023-04-10T12:51:19.350Z,93220.84
2023-04-10T12:53:46.950Z,93222.75
2023-04-10T12:56:14.904Z,93216.94
2023-04-10T12:58:42.854Z,93218.34
2023-04-10T13:01:10.390Z,93215.09
2023-04-10T13:03:38.528Z,93215.28
2023-04-10T13:06:07.623Z,93214.72
2023-04-10T13:08:35.780Z,93213.34
2023-04-10T13:11:03.804Z,93217.50
2023-04-10T13:13:33.028Z,93223.03
2023-04-10T13:16:01.401Z,93217.91
2023-04-10T13:18:29.012Z,93217.69
2023-04-10T13:20:56.730Z,93220.34
2023-04-10T13:23:24.105Z,93211.00
2023-04-10T13:25:51.494Z,93205.34
2023-04-10T13:28:20.310Z,93199.19
2023-04-10T13:30:47.677Z,93204.41
2023-04-10T13:33:15.313Z,93208.53
2023-04-10T13:35:43.099Z,93207.47
2023-04-10T13:38:11.961Z,93208.78
2023-04-10T13:40:39.410Z,93200.47
2023-04-10T13:43:07.116Z,93202.06
2023-04-10T13:45:35.071Z,93193.03
2023-04-10T13:48:02.736Z,93197.47
2023-04-10T13:50:30.518Z,93194.28
2023-04-10T13:52:57.890Z,93192.75
2023-04-10T13:55:25.642Z,93189.56
2023-04-10T13:57:53.422Z,93196.19
2023-04-10T14:00:20.931Z,93188.97
2023-04-10T14:02:48.981Z,93190.22
2023-04-10T14:05:16.723Z,93182.16
2023-04-10T14:07:44.087Z,93201.41
2023-04-10T14:10:11.899Z,93197.25
2023-04-10T14:12:39.158Z,93195.00
2023-04-10T14:15:07.072Z,93192.31
2023-04-10T14:17:35.034Z,93185.28
2023-04-10T14:20:02.568Z,93185.81
2023-04-10T14:22:31.892Z,93192.31
2023-04-10T14:25:11.638Z,93194.87
2023-04-10T14:27:40.136Z,93198.38
2023-04-10T14:30:08.808Z,93181.38
2023-04-10T14:32:36.397Z,93188.28
2023-04-10T14:35:03.927Z,93184.88
2023-04-10T14:37:32.458Z,93188.19
2023-04-10T14:39:59.813Z,93189.03
2023-04-10T14:42:27.913Z,93183.62
2023-04-10T14:44:55.572Z,93184.50
2023-04-10T14:47:23.963Z,93180.91
2023-04-10T14:49:51.409Z,93185.78
2023-04-10T14:52:19.156Z,93187.22
2023-04-10T14:54:46.463Z,93188.88
2023-04-10T14:57:15.835Z,93182.25
2023-04-10T14:59:44.232Z,93183.50
2023-04-10T15:02:11.558Z,93181.97
2023-04-10T15:04:38.994Z,93184.50
2023-04-10T15:07:06.725Z,93184.78
2023-04-10T15:09:34.054Z,93185.59
2023-04-10T15:12:02.090Z,93187.22
2023-04-10T15:14:29.767Z,93183.59
2023-04-10T15:16:57.291Z,93176.31
2023-04-10T15:19:24.769Z,93177.75
2023-04-10T15:21:52.473Z,93178.78
2023-04-10T15:24:19.791Z,93167.69
2023-04-10T15:26:47.322Z,93172.28
2023-04-10T15:29:15.162Z,93182.94
2023-04-10T15:31:42.593Z,93185.13
2023-04-10T15:34:10.389Z,93177.25
2023-04-10T15:36:38.042Z,93178.38
2023-04-10T15:39:05.389Z,93182.28
2023-04-10T15:41:33.328Z,93177.19
2023-04-10T15:44:01.192Z,93179.63
2023-04-10T15:46:32.745Z,93179.81
2023-04-10T15:49:01.652Z,93182.66
2023-04-10T15:51:29.018Z,93187.69
2023-04-10T15:53:56.597Z,93185.63
2023-04-10T15:56:27.335Z,93177.03
2023-04-10T15:58:55.269Z,93186.28
2023-04-10T16:01:22.714Z,93184.09
2023-04-10T16:03:50.475Z,93184.56
2023-04-10T16:06:18.105Z,93190.25
2023-04-10T16:08:45.585Z,93200.97
2023-04-10T16:11:13.286Z,93208.69
2023-04-10T16:13:44.372Z,93200.41
2023-04-10T16:16:16.542Z,93205.28
2023-04-10T16:18:45.161Z,93213.72
2023-04-10T16:21:14.464Z,93214.53
2023-04-10T16:23:41.983Z,93229.62
2023-04-10T16:26:09.301Z,93236.22
2023-04-10T16:28:37.017Z,93236.38
2023-04-10T16:31:04.654Z,93238.94
2023-04-10T16:33:32.543Z,93243.09
2023-04-10T16:36:03.283Z,93255.66
2023-04-10T16:38:31.595Z,93265.91
2023-04-10T16:41:02.462Z,93276.16
2023-04-10T16:43:30.199Z,93287.88
2023-04-10T16:45:59.132Z,93280.84
2023-04-10T16:48:26.887Z,93280.19
2023-04-10T16:50:55.840Z,93269.66
2023-04-10T16:53:23.150Z,93266.47
2023-04-10T16:55:58.298Z,93266.25
2023-04-10T16:58:26.499Z,93240.50
2023-04-10T17:00:53.968Z,93227.16
2023-04-10T17:03:21.559Z,93222.59
2023-04-10T17:05:49.270Z,93222.75
2023-04-10T17:08:16.652Z,93228.09
2023-04-10T17:10:44.032Z,93233.22
2023-04-10T17:13:11.798Z,93235.72
2023-04-10T17:15:39.102Z,93236.31
2023-04-10T17:18:06.463Z,93232.84
2023-04-10T17:20:37.536Z,93236.38
2023-04-10T17:23:04.947Z,93236.75
2023-04-10T17:25:32.383Z,93235.63
2023-04-10T17:28:00.067Z,93247.34
2023-04-10T17:30:27.802Z,93241.56
2023-04-10T17:32:55.070Z,93242.63
2023-04-10T17:35:23.509Z,93237.97
2023-04-10T17:37:53.633Z,93249.84
2023-04-10T17:40:21.386Z,93246.81
2023-04-10T17:42:49.801Z,93246.69
2023-04-10T17:45:20.501Z,93241.94
2023-04-10T17:47:48.039Z,93246.91
2023-04-10T17:50:15.844Z,93246.50
2023-04-10T17:52:44.641Z,93238.81
2023-04-10T17:55:12.072Z,93239.59
2023-04-10T17:57:39.705Z,93249.97
2023-04-10T18:00:09.010Z,93243.88
2023-04-10T18:02:36.979Z,93243.28
2023-04-10T18:05:06.650Z,93250.19
2023-04-10T18:07:35.810Z,93251.44
2023-04-10T18:10:04.571Z,93247.41
2023-04-10T18:12:32.808Z,93250.13
2023-04-10T18:15:00.916Z,93254.25
2023-04-10T18:17:29.121Z,93258.78
2023-04-10T18:19:57.703Z,93251.81
2023-04-10T18:22:25.467Z,93257.34
2023-04-10T18:24:53.795Z,93256.25
2023-04-10T18:27:21.517Z,93258.38
2023-04-10T18:29:49.057Z,93264.44
2023-04-10T18:32:16.690Z,93265.91
2023-04-10T18:34:43.948Z,93263.44
2023-04-10T18:37:11.362Z,93278.72
2023-04-10T18:39:39.195Z,93286.47
2023-04-10T18:42:10.758Z,93288.41
2023-04-10T18:44:38.737Z,93294.59
2023-04-10T18:47:06.161Z,93287.94
2023-04-10T18:49:33.603Z,93299.59
2023-04-10T18:52:01.407Z,93302.25
2023-04-10T18:54:30.021Z,93301.56
2023-04-10T18:56:57.458Z,93295.53
2023-04-10T18:59:27.853Z,93289.19
2023-04-10T19:01:55.332Z,93292.38
2023-04-10T19:04:23.082Z,93294.09
2023-04-10T19:06:51.550Z,93286.87
2023-04-10T19:09:18.945Z,93287.13
2023-04-10T19:11:46.360Z,93292.09
2023-04-10T19:14:14.035Z,93286.13
2023-04-10T19:16:41.510Z,93279.72
2023-04-10T19:19:08.848Z,93275.50
2023-04-10T19:21:36.599Z,93279.09
2023-04-10T19:24:04.046Z,93272.38
2023-04-10T19:26:31.523Z,93279.63
2023-04-10T19:28:59.682Z,93272.13
2023-04-10T19:31:29.957Z,93278.19
2023-04-10T19:33:57.438Z,93273.34
2023-04-10T19:36:25.291Z,93273.63
2023-04-10T19:38:52.812Z,93272.88
2023-04-10T19:41:20.182Z,93263.06
2023-04-10T19:43:47.889Z,93268.69
2023-04-10T19:46:19.388Z,93270.53
2023-04-10T19:48:47.520Z,93261.72
2023-04-10T19:51:15.529Z,93249.38
2023-04-10T19:53:42.928Z,93247.09
2023-04-10T19:56:10.384Z,93247.13
2023-04-10T19:58:41.019Z,93234.03
2023-04-10T20:01:09.442Z,93228.03
2023-04-10T20:03:38.740Z,93228.34
2023-04-10T20:06:10.499Z,93226.84
2023-04-10T20:08:38.229Z,93225.94
2023-04-10T20:11:06.751Z,93226.66
2023-04-10T20:13:35.047Z,93227.81
2023-04-10T20:16:02.997Z,93227.06
2023-04-10T20:18:32.248Z,93231.34
2023-04-10T20:20:59.944Z,93213.84
2023-04-10T20:23:27.658Z,93222.63
2023-04-10T20:25:55.007Z,93219.44
2023-04-10T20:28:22.332Z,93226.88
2023-04-10T20:30:50.002Z,93232.91
2023-04-10T20:33:17.397Z,93222.75
2023-04-10T20:35:44.770Z,93230.22
2023-04-10T20:38:12.552Z,93227.47
2023-04-10T20:40:39.911Z,93223.75
2023-04-10T20:43:11.588Z,93233.88
2023-04-10T20:45:39.874Z,93229.62
2023-04-10T20:48:09.170Z,93231.00
2023-04-10T20:50:39.993Z,93225.06
2023-04-10T20:53:07.915Z,93227.44
2023-04-10T20:55:38.824Z,93225.75
2023-04-10T20:58:06.661Z,93224.87
2023-04-10T21:00:34.661Z,93213.53
2023-04-10T21:03:01.978Z,93212.25
2023-04-10T21:05:29.432Z,93212.78
2023-04-10T21:07:57.104Z,93213.97
2023-04-10T21:10:24.518Z,93217.44
2023-04-10T21:12:51.825Z,93211.19
2023-04-10T21:15:19.521Z,93210.22
2023-04-10T21:17:47.966Z,93203.06
2023-04-10T21:20:15.586Z,93210.69
2023-04-10T21:22:43.111Z,93194.06
2023-04-10T21:25:11.390Z,93195.53
2023-04-10T21:27:38.573Z,93197.16
2023-04-10T21:30:06.718Z,93199.72
2023-04-10T21:32:34.087Z,93194.16
2023-04-10T21:35:01.493Z,93196.75
2023-04-10T21:37:29.112Z,93183.75
2023-04-10T21:39:56.458Z,93187.28
2023-04-10T21:42:23.834Z,93182.41
2023-04-10T21:44:51.480Z,93183.69
2023-04-10T21:47:18.708Z,93185.16
2023-04-10T21:49:46.012Z,93179.81
2023-04-10T21:52:13.552Z,93178.44
2023-04-10T21:54:40.782Z,93183.91
2023-04-10T21:57:08.273Z,93179.50
2023-04-10T21:59:36.928Z,93181.50
2023-04-10T22:02:04.211Z,93179.50
2023-04-10T22:04:33.054Z,93175.06
2023-04-10T22:07:00.420Z,93176.12
2023-04-10T22:09:27.641Z,93173.91
2023-04-10T22:11:55.514Z,93171.16
2023-04-10T22:14:24.817Z,93168.69
2023-04-10T22:16:51.916Z,93165.06
2023-04-10T22:19:19.673Z,93162.03
2023-04-10T22:21:46.994Z,93161.09
2023-04-10T22:24:14.335Z,93156.13
2023-04-10T22:26:42.369Z,93151.06
2023-04-10T22:29:09.846Z,93153.91
2023-04-10T22:31:37.117Z,93161.84
2023-04-10T22:34:04.623Z,93159.03
2023-04-10T22:36:35.054Z,93167.44
2023-04-10T22:39:03.052Z,93158.84
2023-04-10T22:41:31.467Z,93157.63
2023-04-10T22:43:59.108Z,93159.78
2023-04-10T22:46:26.395Z,93146.59
2023-04-10T22:48:55.141Z,93151.00
2023-04-10T22:51:22.647Z,93148.00
2023-04-10T22:53:49.928Z,93157.47
2023-04-10T22:56:18.741Z,93150.25
2023-04-10T22:58:46.034Z,93155.28
2023-04-10T23:01:13.501Z,93158.38
2023-04-10T23:03:41.249Z,93159.00
2023-04-10T23:06:08.902Z,93158.53
2023-04-10T23:08:36.597Z,93150.94
2023-04-10T23:11:04.219Z,93155.69
2023-04-10T23:13:31.444Z,93151.50
2023-04-10T23:15:58.680Z,93144.44
2023-04-10T23:18:26.537Z,93150.84
2023-04-10T23:20:53.910Z,93138.72
2023-04-10T23:23:21.484Z,93138.00
2023-04-10T23:25:58.828Z,93141.72
2023-04-10T23:28:27.166Z,93137.75
2023-04-10T23:30:54.916Z,93129.16
2023-04-10T23:33:22.466Z,93132.81
2023-04-10T23:35:49.876Z,93131.28
2023-04-10T23:38:17.573Z,93119.16
2023-04-10T23:40:44.916Z,93106.53
2023-04-10T23:43:12.203Z,93105.19
2023-04-10T23:45:39.979Z,93106.19
2023-04-10T23:48:09.088Z,93096.94
2023-04-10T23:50:36.382Z,93087.47
2023-04-10T23:53:04.108Z,93080.59
2023-04-10T23:55:31.550Z,93083.13
2023-04-10T23:57:58.846Z,93080.63
